Temple Hill, Illinois
Current Conditions -  °F | °C
As of 11:35 AM on Saturday 25 Oct 2014 (Local Time) from KM30 Reporting Station
Clear Clear  
Wind Chill: 71°   Ceiling: Unl
Heat Index: 71°   Visibility: 10mi
Dew Point: 62°   Wind: 3mph
Humidity: 73%   Direction: 320°NW
Pressure: 30.04"   Gusts: NA
Location:  37.3224°N, 88.5774°W
Report Text: KM30 251635Z AUTO 32003KT 10SM CLR 21/16 A3004 RMK AO2 T02140164
Loading
Personal Weather Stations






























Interactive Weather Map
Tropical Storm Tracking
New forecast layout! Learn more

10-Day Weather Forecast

Advertisements
Track Severe Weather on mobile